sensor_id;sensor_type;location;lat;lon;timestamp;P1;durP1;ratioP1;P2;durP2;ratioP2
43413;SDS011;29013;49.676;8.606;2023-03-01T00:01:52;10.55;;;5.93;;
43413;SDS011;29013;49.676;8.606;2023-03-01T00:07:17;8.12;;;6.12;;
43413;SDS011;29013;49.676;8.606;2023-03-01T00:12:42;9.93;;;5.86;;
43413;SDS011;29013;49.676;8.606;2023-03-01T00:18:08;8.56;;;6.48;;
43413;SDS011;29013;49.676;8.606;2023-03-01T00:23:29;10.16;;;6.29;;
43413;SDS011;29013;49.676;8.606;2023-03-01T00:28:54;11.72;;;6.45;;
43413;SDS011;29013;49.676;8.606;2023-03-01T00:34:13;10.61;;;6.18;;
43413;SDS011;29013;49.676;8.606;2023-03-01T00:39:30;9.54;;;6.26;;
43413;SDS011;29013;49.676;8.606;2023-03-01T00:44:51;12.12;;;6.44;;
43413;SDS011;29013;49.676;8.606;2023-03-01T00:50:13;9.18;;;6.56;;
43413;SDS011;29013;49.676;8.606;2023-03-01T00:55:37;10.01;;;6.62;;
43413;SDS011;29013;49.676;8.606;2023-03-01T01:01:06;10.42;;;6.09;;
43413;SDS011;29013;49.676;8.606;2023-03-01T01:06:43;12.15;;;7.16;;
43413;SDS011;29013;49.676;8.606;2023-03-01T01:12:05;10.93;;;6.85;;
43413;SDS011;29013;49.676;8.606;2023-03-01T01:17:30;9.99;;;6.14;;
43413;SDS011;29013;49.676;8.606;2023-03-01T01:22:48;9.52;;;6.45;;
43413;SDS011;29013;49.676;8.606;2023-03-01T01:28:38;11.7;;;7.14;;
43413;SDS011;29013;49.676;8.606;2023-03-01T01:34:02;9.77;;;6.63;;
43413;SDS011;29013;49.676;8.606;2023-03-01T01:39:19;10.81;;;6.87;;
43413;SDS011;29013;49.676;8.606;2023-03-01T01:44:44;11.78;;;7.04;;
43413;SDS011;29013;49.676;8.606;2023-03-01T01:50:02;10.71;;;6.74;;
43413;SDS011;29013;49.676;8.606;2023-03-01T01:55:26;11.47;;;7.09;;
43413;SDS011;29013;49.676;8.606;2023-03-01T02:00:46;11.76;;;7.41;;
43413;SDS011;29013;49.676;8.606;2023-03-01T02:06:13;9.91;;;6.76;;
43413;SDS011;29013;49.676;8.606;2023-03-01T02:11:31;12.14;;;6.83;;
43413;SDS011;29013;49.676;8.606;2023-03-01T02:16:49;11.81;;;7.56;;
43413;SDS011;29013;49.676;8.606;2023-03-01T02:22:15;11.27;;;6.91;;
43413;SDS011;29013;49.676;8.606;2023-03-01T02:27:38;11.76;;;7.56;;
43413;SDS011;29013;49.676;8.606;2023-03-01T02:33:02;11.69;;;8.0;;
43413;SDS011;29013;49.676;8.606;2023-03-01T02:38:27;12.29;;;7.27;;
43413;SDS011;29013;49.676;8.606;2023-03-01T02:43:46;9.85;;;6.56;;
43413;SDS011;29013;49.676;8.606;2023-03-01T02:49:17;12.13;;;8.02;;
43413;SDS011;29013;49.676;8.606;2023-03-01T02:54:41;13.82;;;8.84;;
43413;SDS011;29013;49.676;8.606;2023-03-01T03:00:06;12.93;;;8.33;;
43413;SDS011;29013;49.676;8.606;2023-03-01T03:05:28;11.11;;;7.56;;
43413;SDS011;29013;49.676;8.606;2023-03-01T03:10:52;11.37;;;7.94;;
43413;SDS011;29013;49.676;8.606;2023-03-01T03:16:16;11.76;;;7.18;;
43413;SDS011;29013;49.676;8.606;2023-03-01T03:21:40;13.1;;;7.5;;
43413;SDS011;29013;49.676;8.606;2023-03-01T03:26:57;12.78;;;7.36;;
43413;SDS011;29013;49.676;8.606;2023-03-01T03:32:21;10.61;;;7.05;;
43413;SDS011;29013;49.676;8.606;2023-03-01T03:37:40;11.02;;;7.11;;
43413;SDS011;29013;49.676;8.606;2023-03-01T03:43:29;13.17;;;8.28;;
43413;SDS011;29013;49.676;8.606;2023-03-01T03:49:04;14.03;;;7.89;;
43413;SDS011;29013;49.676;8.606;2023-03-01T03:54:25;10.35;;;7.24;;
43413;SDS011;29013;49.676;8.606;2023-03-01T03:59:44;13.85;;;7.96;;
43413;SDS011;29013;49.676;8.606;2023-03-01T04:05:11;12.77;;;7.61;;
43413;SDS011;29013;49.676;8.606;2023-03-01T04:10:29;13.1;;;7.79;;
43413;SDS011;29013;49.676;8.606;2023-03-01T04:15:52;13.64;;;8.2;;
43413;SDS011;29013;49.676;8.606;2023-03-01T04:21:17;15.03;;;7.88;;
43413;SDS011;29013;49.676;8.606;2023-03-01T04:26:40;12.84;;;7.62;;
43413;SDS011;29013;49.676;8.606;2023-03-01T04:32:06;11.55;;;7.74;;
43413;SDS011;29013;49.676;8.606;2023-03-01T04:37:31;11.96;;;7.42;;
43413;SDS011;29013;49.676;8.606;2023-03-01T04:42:50;10.55;;;7.36;;
43413;SDS011;29013;49.676;8.606;2023-03-01T04:48:37;13.03;;;8.12;;
43413;SDS011;29013;49.676;8.606;2023-03-01T04:53:56;12.32;;;8.15;;
43413;SDS011;29013;49.676;8.606;2023-03-01T04:59:17;14.36;;;7.65;;
43413;SDS011;29013;49.676;8.606;2023-03-01T05:04:43;13.6;;;8.09;;
43413;SDS011;29013;49.676;8.606;2023-03-01T05:10:09;13.24;;;8.03;;
43413;SDS011;29013;49.676;8.606;2023-03-01T05:15:29;11.48;;;7.73;;
43413;SDS011;29013;49.676;8.606;2023-03-01T05:20:47;13.83;;;8.0;;
43413;SDS011;29013;49.676;8.606;2023-03-01T05:26:11;13.4;;;8.65;;
43413;SDS011;29013;49.676;8.606;2023-03-01T05:31:33;14.48;;;8.1;;
43413;SDS011;29013;49.676;8.606;2023-03-01T05:36:55;11.91;;;7.6;;
43413;SDS011;29013;49.676;8.606;2023-03-01T05:42:19;11.93;;;7.83;;
43413;SDS011;29013;49.676;8.606;2023-03-01T05:47:45;12.11;;;7.8;;
43413;SDS011;29013;49.676;8.606;2023-03-01T05:53:24;12.48;;;8.15;;
43413;SDS011;29013;49.676;8.606;2023-03-01T05:58:48;13.52;;;7.58;;
43413;SDS011;29013;49.676;8.606;2023-03-01T06:04:10;11.43;;;7.68;;
43413;SDS011;29013;49.676;8.606;2023-03-01T06:09:35;11.14;;;7.32;;
43413;SDS011;29013;49.676;8.606;2023-03-01T06:15:22;13.34;;;8.31;;
43413;SDS011;29013;49.676;8.606;2023-03-01T06:20:45;11.42;;;8.03;;
43413;SDS011;29013;49.676;8.606;2023-03-01T06:26:14;13.33;;;8.14;;
43413;SDS011;29013;49.676;8.606;2023-03-01T06:31:36;10.92;;;7.06;;
43413;SDS011;29013;49.676;8.606;2023-03-01T06:37:16;11.99;;;8.46;;
43413;SDS011;29013;49.676;8.606;2023-03-01T06:42:40;12.75;;;7.88;;
43413;SDS011;29013;49.676;8.606;2023-03-01T06:48:04;12.78;;;8.32;;
43413;SDS011;29013;49.676;8.606;2023-03-01T06:53:49;13.94;;;8.74;;
43413;SDS011;29013;49.676;8.606;2023-03-01T06:59:06;10.68;;;7.32;;
43413;SDS011;29013;49.676;8.606;2023-03-01T07:04:31;14.76;;;8.01;;
43413;SDS011;29013;49.676;8.606;2023-03-01T07:09:55;13.36;;;7.91;;
43413;SDS011;29013;49.676;8.606;2023-03-01T07:15:18;11.92;;;8.29;;
43413;SDS011;29013;49.676;8.606;2023-03-01T07:20:44;13.35;;;7.72;;
43413;SDS011;29013;49.676;8.606;2023-03-01T07:26:08;13.86;;;8.72;;
43413;SDS011;29013;49.676;8.606;2023-03-01T07:31:26;12.2;;;8.47;;
43413;SDS011;29013;49.676;8.606;2023-03-01T07:36:45;12.0;;;8.03;;
43413;SDS011;29013;49.676;8.606;2023-03-01T07:42:09;14.11;;;8.51;;
43413;SDS011;29013;49.676;8.606;2023-03-01T07:47:35;12.48;;;8.36;;
43413;SDS011;29013;49.676;8.606;2023-03-01T07:52:53;12.15;;;7.76;;
43413;SDS011;29013;49.676;8.606;2023-03-01T07:58:12;13.83;;;7.81;;
43413;SDS011;29013;49.676;8.606;2023-03-01T08:03:34;13.18;;;8.51;;
43413;SDS011;29013;49.676;8.606;2023-03-01T08:08:52;13.06;;;8.63;;
43413;SDS011;29013;49.676;8.606;2023-03-01T08:14:16;12.4;;;8.34;;
43413;SDS011;29013;49.676;8.606;2023-03-01T08:19:42;12.02;;;8.16;;
43413;SDS011;29013;49.676;8.606;2023-03-01T08:25:06;12.48;;;8.45;;
43413;SDS011;29013;49.676;8.606;2023-03-01T08:30:28;12.28;;;8.58;;
43413;SDS011;29013;49.676;8.606;2023-03-01T08:35:50;12.5;;;7.81;;
43413;SDS011;29013;49.676;8.606;2023-03-01T08:41:12;17.4;;;9.17;;
43413;SDS011;29013;49.676;8.606;2023-03-01T08:46:31;14.11;;;8.56;;
43413;SDS011;29013;49.676;8.606;2023-03-01T08:51:55;13.24;;;8.68;;
43413;SDS011;29013;49.676;8.606;2023-03-01T08:57:14;14.36;;;9.29;;
43413;SDS011;29013;49.676;8.606;2023-03-01T09:02:39;14.85;;;9.05;;
43413;SDS011;29013;49.676;8.606;2023-03-01T09:08:04;14.48;;;9.2;;
43413;SDS011;29013;49.676;8.606;2023-03-01T09:13:29;14.76;;;9.35;;
43413;SDS011;29013;49.676;8.606;2023-03-01T09:18:54;16.73;;;9.55;;
43413;SDS011;29013;49.676;8.606;2023-03-01T09:24:19;16.15;;;9.71;;
43413;SDS011;29013;49.676;8.606;2023-03-01T09:29:43;17.4;;;8.99;;
43413;SDS011;29013;49.676;8.606;2023-03-01T09:35:08;15.26;;;9.96;;
43413;SDS011;29013;49.676;8.606;2023-03-01T09:40:32;16.05;;;9.7;;
43413;SDS011;29013;49.676;8.606;2023-03-01T09:45:58;17.8;;;10.06;;
43413;SDS011;29013;49.676;8.606;2023-03-01T09:51:19;15.42;;;9.49;;
43413;SDS011;29013;49.676;8.606;2023-03-01T09:56:44;15.34;;;9.69;;
43413;SDS011;29013;49.676;8.606;2023-03-01T10:02:11;15.7;;;10.36;;
43413;SDS011;29013;49.676;8.606;2023-03-01T10:07:36;19.43;;;10.56;;
43413;SDS011;29013;49.676;8.606;2023-03-01T10:12:57;16.6;;;10.43;;
43413;SDS011;29013;49.676;8.606;2023-03-01T10:18:23;17.39;;;10.46;;
43413;SDS011;29013;49.676;8.606;2023-03-01T10:23:45;15.27;;;9.72;;
43413;SDS011;29013;49.676;8.606;2023-03-01T10:29:11;14.44;;;9.74;;
43413;SDS011;29013;49.676;8.606;2023-03-01T10:34:32;15.83;;;10.74;;
43413;SDS011;29013;49.676;8.606;2023-03-01T10:40:10;14.5;;;10.11;;
43413;SDS011;29013;49.676;8.606;2023-03-01T10:45:34;15.58;;;9.89;;
43413;SDS011;29013;49.676;8.606;2023-03-01T10:51:04;13.4;;;10.06;;
43413;SDS011;29013;49.676;8.606;2023-03-01T11:02:18;16.37;;;9.92;;
43413;SDS011;29013;49.676;8.606;2023-03-01T11:07:34;15.46;;;10.28;;
43413;SDS011;29013;49.676;8.606;2023-03-01T11:13:18;14.49;;;10.23;;
43413;SDS011;29013;49.676;8.606;2023-03-01T11:18:41;15.29;;;10.17;;
43413;SDS011;29013;49.676;8.606;2023-03-01T11:24:09;16.45;;;10.44;;
43413;SDS011;29013;49.676;8.606;2023-03-01T11:29:33;13.93;;;10.03;;
43413;SDS011;29013;49.676;8.606;2023-03-01T11:35:55;16.28;;;11.64;;
43413;SDS011;29013;49.676;8.606;2023-03-01T11:41:17;14.38;;;9.71;;
43413;SDS011;29013;49.676;8.606;2023-03-01T11:47:07;17.71;;;10.81;;
43413;SDS011;29013;49.676;8.606;2023-03-01T11:52:33;15.69;;;10.17;;
43413;SDS011;29013;49.676;8.606;2023-03-01T11:57:57;14.87;;;9.75;;
43413;SDS011;29013;49.676;8.606;2023-03-01T12:03:32;16.49;;;8.84;;
43413;SDS011;29013;49.676;8.606;2023-03-01T12:09:11;14.11;;;9.43;;
43413;SDS011;29013;49.676;8.606;2023-03-01T12:14:40;16.12;;;9.4;;
43413;SDS011;29013;49.676;8.606;2023-03-01T12:20:12;15.05;;;9.73;;
43413;SDS011;29013;49.676;8.606;2023-03-01T12:25:32;15.75;;;9.7;;
43413;SDS011;29013;49.676;8.606;2023-03-01T12:31:03;16.55;;;9.67;;
43413;SDS011;29013;49.676;8.606;2023-03-01T12:42:14;14.03;;;9.04;;
43413;SDS011;29013;49.676;8.606;2023-03-01T12:47:39;15.12;;;8.62;;
43413;SDS011;29013;49.676;8.606;2023-03-01T12:52:59;15.89;;;9.87;;
43413;SDS011;29013;49.676;8.606;2023-03-01T12:58:26;17.07;;;10.24;;
43413;SDS011;29013;49.676;8.606;2023-03-01T13:04:03;13.83;;;9.32;;
43413;SDS011;29013;49.676;8.606;2023-03-01T13:09:23;11.64;;;8.35;;
43413;SDS011;29013;49.676;8.606;2023-03-01T13:14:46;14.51;;;8.33;;
43413;SDS011;29013;49.676;8.606;2023-03-01T13:20:33;13.82;;;9.4;;
43413;SDS011;29013;49.676;8.606;2023-03-01T13:37:23;12.48;;;7.99;;
43413;SDS011;29013;49.676;8.606;2023-03-01T13:42:43;11.47;;;7.34;;
43413;SDS011;29013;49.676;8.606;2023-03-01T13:48:02;12.33;;;7.44;;
43413;SDS011;29013;49.676;8.606;2023-03-01T13:53:28;10.72;;;6.91;;
43413;SDS011;29013;49.676;8.606;2023-03-01T13:58:50;9.86;;;6.62;;
43413;SDS011;29013;49.676;8.606;2023-03-01T14:04:20;9.48;;;6.42;;
43413;SDS011;29013;49.676;8.606;2023-03-01T14:09:39;17.4;;;5.93;;
43413;SDS011;29013;49.676;8.606;2023-03-01T14:15:02;10.06;;;6.18;;
43413;SDS011;29013;49.676;8.606;2023-03-01T14:20:27;9.12;;;5.76;;
43413;SDS011;29013;49.676;8.606;2023-03-01T14:25:51;10.98;;;5.84;;
43413;SDS011;29013;49.676;8.606;2023-03-01T14:36:55;11.51;;;5.91;;
43413;SDS011;29013;49.676;8.606;2023-03-01T14:42:22;9.81;;;5.69;;
43413;SDS011;29013;49.676;8.606;2023-03-01T14:47:58;10.9;;;5.58;;
43413;SDS011;29013;49.676;8.606;2023-03-01T14:53:35;9.89;;;5.88;;
43413;SDS011;29013;49.676;8.606;2023-03-01T14:58:53;7.78;;;5.33;;
43413;SDS011;29013;49.676;8.606;2023-03-01T15:05:02;10.09;;;6.09;;
43413;SDS011;29013;49.676;8.606;2023-03-01T15:10:26;8.4;;;5.02;;
43413;SDS011;29013;49.676;8.606;2023-03-01T15:16:14;9.1;;;5.65;;
43413;SDS011;29013;49.676;8.606;2023-03-01T15:21:31;8.23;;;5.18;;
43413;SDS011;29013;49.676;8.606;2023-03-01T15:26:57;7.85;;;5.39;;
43413;SDS011;29013;49.676;8.606;2023-03-01T15:32:24;8.36;;;5.72;;
43413;SDS011;29013;49.676;8.606;2023-03-01T15:37:47;10.46;;;5.39;;
43413;SDS011;29013;49.676;8.606;2023-03-01T15:43:35;7.97;;;5.21;;
43413;SDS011;29013;49.676;8.606;2023-03-01T15:48:30;8.44;;;5.4;;
43413;SDS011;29013;49.676;8.606;2023-03-01T15:53:55;10.84;;;6.76;;
43413;SDS011;29013;49.676;8.606;2023-03-01T15:59:16;11.12;;;6.45;;
43413;SDS011;29013;49.676;8.606;2023-03-01T16:04:40;10.19;;;6.21;;
43413;SDS011;29013;49.676;8.606;2023-03-01T16:10:06;11.39;;;7.42;;
43413;SDS011;29013;49.676;8.606;2023-03-01T16:15:33;12.2;;;6.01;;
43413;SDS011;29013;49.676;8.606;2023-03-01T16:20:59;11.2;;;6.61;;
43413;SDS011;29013;49.676;8.606;2023-03-01T16:26:24;13.41;;;6.63;;
43413;SDS011;29013;49.676;8.606;2023-03-01T16:31:42;8.92;;;6.42;;
43413;SDS011;29013;49.676;8.606;2023-03-01T16:37:23;12.7;;;7.11;;
43413;SDS011;29013;49.676;8.606;2023-03-01T16:42:47;12.42;;;7.41;;
43413;SDS011;29013;49.676;8.606;2023-03-01T16:48:07;11.31;;;6.77;;
43413;SDS011;29013;49.676;8.606;2023-03-01T16:53:31;9.65;;;6.71;;
43413;SDS011;29013;49.676;8.606;2023-03-01T16:58:55;9.39;;;6.35;;
43413;SDS011;29013;49.676;8.606;2023-03-01T17:04:18;14.5;;;7.53;;
43413;SDS011;29013;49.676;8.606;2023-03-01T17:09:43;11.52;;;7.27;;
43413;SDS011;29013;49.676;8.606;2023-03-01T17:15:09;13.53;;;6.96;;
43413;SDS011;29013;49.676;8.606;2023-03-01T17:20:33;11.42;;;6.95;;
43413;SDS011;29013;49.676;8.606;2023-03-01T17:25:54;12.45;;;8.07;;
43413;SDS011;29013;49.676;8.606;2023-03-01T17:31:17;13.95;;;7.43;;
43413;SDS011;29013;49.676;8.606;2023-03-01T17:36:42;10.77;;;7.07;;
43413;SDS011;29013;49.676;8.606;2023-03-01T17:42:04;13.08;;;8.2;;
43413;SDS011;29013;49.676;8.606;2023-03-01T17:47:23;16.2;;;7.91;;
43413;SDS011;29013;49.676;8.606;2023-03-01T17:52:47;11.4;;;7.09;;
43413;SDS011;29013;49.676;8.606;2023-03-01T17:58:13;13.38;;;8.6;;
43413;SDS011;29013;49.676;8.606;2023-03-01T18:03:34;13.15;;;8.63;;
43413;SDS011;29013;49.676;8.606;2023-03-01T18:08:59;13.37;;;8.15;;
43413;SDS011;29013;49.676;8.606;2023-03-01T18:14:23;17.48;;;8.95;;
43413;SDS011;29013;49.676;8.606;2023-03-01T18:19:41;14.36;;;8.72;;
43413;SDS011;29013;49.676;8.606;2023-03-01T18:25:05;12.12;;;8.62;;
43413;SDS011;29013;49.676;8.606;2023-03-01T18:30:29;16.55;;;9.38;;
43413;SDS011;29013;49.676;8.606;2023-03-01T18:35:50;18.16;;;11.14;;
43413;SDS011;29013;49.676;8.606;2023-03-01T18:41:08;16.59;;;9.03;;
43413;SDS011;29013;49.676;8.606;2023-03-01T18:46:56;13.37;;;9.19;;
43413;SDS011;29013;49.676;8.606;2023-03-01T18:52:20;15.34;;;9.01;;
43413;SDS011;29013;49.676;8.606;2023-03-01T18:57:38;17.47;;;9.49;;
43413;SDS011;29013;49.676;8.606;2023-03-01T19:03:00;13.49;;;8.95;;
43413;SDS011;29013;49.676;8.606;2023-03-01T19:08:22;19.61;;;9.5;;
43413;SDS011;29013;49.676;8.606;2023-03-01T19:13:41;13.96;;;8.93;;
43413;SDS011;29013;49.676;8.606;2023-03-01T19:19:01;17.62;;;9.58;;
43413;SDS011;29013;49.676;8.606;2023-03-01T19:24:24;16.29;;;9.46;;
43413;SDS011;29013;49.676;8.606;2023-03-01T19:29:50;13.33;;;8.76;;
43413;SDS011;29013;49.676;8.606;2023-03-01T19:35:14;16.52;;;8.96;;
43413;SDS011;29013;49.676;8.606;2023-03-01T19:40:36;14.86;;;8.36;;
43413;SDS011;29013;49.676;8.606;2023-03-01T19:45:59;11.72;;;8.07;;
43413;SDS011;29013;49.676;8.606;2023-03-01T19:51:23;12.69;;;8.44;;
43413;SDS011;29013;49.676;8.606;2023-03-01T19:56:41;15.64;;;9.67;;
43413;SDS011;29013;49.676;8.606;2023-03-01T20:02:07;15.95;;;8.75;;
43413;SDS011;29013;49.676;8.606;2023-03-01T20:07:55;14.38;;;8.66;;
43413;SDS011;29013;49.676;8.606;2023-03-01T20:13:17;17.49;;;8.77;;
43413;SDS011;29013;49.676;8.606;2023-03-01T20:18:42;14.3;;;8.08;;
43413;SDS011;29013;49.676;8.606;2023-03-01T20:24:00;13.79;;;8.71;;
43413;SDS011;29013;49.676;8.606;2023-03-01T20:29:26;12.81;;;8.89;;
43413;SDS011;29013;49.676;8.606;2023-03-01T20:34:48;15.69;;;8.14;;
43413;SDS011;29013;49.676;8.606;2023-03-01T20:40:12;12.94;;;8.66;;
43413;SDS011;29013;49.676;8.606;2023-03-01T20:45:31;15.67;;;9.27;;
43413;SDS011;29013;49.676;8.606;2023-03-01T20:50:53;13.42;;;8.47;;
43413;SDS011;29013;49.676;8.606;2023-03-01T20:57:02;13.89;;;8.54;;
43413;SDS011;29013;49.676;8.606;2023-03-01T21:02:23;14.28;;;9.07;;
43413;SDS011;29013;49.676;8.606;2023-03-01T21:08:04;14.73;;;8.92;;
43413;SDS011;29013;49.676;8.606;2023-03-01T21:13:28;15.25;;;8.8;;
43413;SDS011;29013;49.676;8.606;2023-03-01T21:18:51;13.5;;;8.92;;
43413;SDS011;29013;49.676;8.606;2023-03-01T21:24:58;18.52;;;10.07;;
43413;SDS011;29013;49.676;8.606;2023-03-01T21:30:21;15.12;;;9.01;;
43413;SDS011;29013;49.676;8.606;2023-03-01T21:35:47;15.22;;;8.94;;
43413;SDS011;29013;49.676;8.606;2023-03-01T21:41:12;15.77;;;9.26;;
43413;SDS011;29013;49.676;8.606;2023-03-01T21:46:37;14.31;;;8.73;;
43413;SDS011;29013;49.676;8.606;2023-03-01T21:52:02;15.4;;;9.64;;
43413;SDS011;29013;49.676;8.606;2023-03-01T21:57:25;14.82;;;9.33;;
43413;SDS011;29013;49.676;8.606;2023-03-01T22:02:48;17.16;;;9.44;;
43413;SDS011;29013;49.676;8.606;2023-03-01T22:08:11;16.16;;;9.42;;
43413;SDS011;29013;49.676;8.606;2023-03-01T22:13:34;15.87;;;9.45;;
43413;SDS011;29013;49.676;8.606;2023-03-01T22:18:59;13.72;;;8.98;;
43413;SDS011;29013;49.676;8.606;2023-03-01T22:24:37;14.62;;;9.07;;
43413;SDS011;29013;49.676;8.606;2023-03-01T22:29:59;13.24;;;8.9;;
43413;SDS011;29013;49.676;8.606;2023-03-01T22:35:24;14.11;;;8.77;;
43413;SDS011;29013;49.676;8.606;2023-03-01T22:40:55;12.98;;;8.46;;
43413;SDS011;29013;49.676;8.606;2023-03-01T22:46:17;13.65;;;8.89;;
43413;SDS011;29013;49.676;8.606;2023-03-01T22:51:40;16.96;;;9.27;;
43413;SDS011;29013;49.676;8.606;2023-03-01T22:56:59;15.29;;;9.67;;
43413;SDS011;29013;49.676;8.606;2023-03-01T23:02:17;14.63;;;9.37;;
43413;SDS011;29013;49.676;8.606;2023-03-01T23:07:42;15.21;;;9.51;;
43413;SDS011;29013;49.676;8.606;2023-03-01T23:13:08;14.7;;;9.05;;
43413;SDS011;29013;49.676;8.606;2023-03-01T23:18:33;16.17;;;9.99;;
43413;SDS011;29013;49.676;8.606;2023-03-01T23:23:57;16.38;;;9.31;;
43413;SDS011;29013;49.676;8.606;2023-03-01T23:29:20;17.45;;;9.79;;
43413;SDS011;29013;49.676;8.606;2023-03-01T23:35:08;15.64;;;9.58;;
43413;SDS011;29013;49.676;8.606;2023-03-01T23:40:33;14.3;;;9.25;;
43413;SDS011;29013;49.676;8.606;2023-03-01T23:45:59;18.32;;;9.94;;
43413;SDS011;29013;49.676;8.606;2023-03-01T23:51:23;14.45;;;9.4;;
43413;SDS011;29013;49.676;8.606;2023-03-01T23:56:43;16.46;;;9.06;;
